sensor_id;sensor_type;location;lat;lon;timestamp;pressure;altitude;pressure_sealevel;temperature;humidity
9419;BME280;4748;50.802;7.132;2023-04-03T17:10:50;102179.47;;;9.64;56.79
9419;BME280;4748;50.802;7.132;2023-04-03T17:13:18;102169.41;;;9.44;53.10
9419;BME280;4748;50.802;7.132;2023-04-03T17:15:44;102180.44;;;9.41;59.39
9419;BME280;4748;50.802;7.132;2023-04-03T17:18:09;102176.28;;;9.38;62.06
9419;BME280;4748;50.802;7.132;2023-04-03T17:20:35;102176.97;;;9.32;66.15
9419;BME280;4748;50.802;7.132;2023-04-03T17:23:02;102176.47;;;9.29;58.55
9419;BME280;4748;50.802;7.132;2023-04-03T17:25:28;102176.81;;;9.26;64.72
9419;BME280;4748;50.802;7.132;2023-04-03T17:27:53;102184.03;;;9.17;53.04
9419;BME280;4748;50.802;7.132;2023-04-03T17:30:19;102185.06;;;9.16;66.56
9419;BME280;4748;50.802;7.132;2023-04-03T17:32:44;102182.91;;;9.12;50.34
9419;BME280;4748;50.802;7.132;2023-04-03T17:35:09;102182.59;;;8.99;55.38
9419;BME280;4748;50.802;7.132;2023-04-03T17:37:35;102184.94;;;9.02;66.31
9419;BME280;4748;50.802;7.132;2023-04-03T17:40:00;102181.63;;;8.92;67.08
9419;BME280;4748;50.802;7.132;2023-04-03T17:42:25;102189.50;;;8.94;69.68
9419;BME280;4748;50.802;7.132;2023-04-03T17:44:51;102188.00;;;8.91;65.00
9419;BME280;4748;50.802;7.132;2023-04-03T17:47:16;102184.34;;;8.84;57.75
9419;BME280;4748;50.802;7.132;2023-04-03T17:49:41;102189.69;;;8.84;62.13
9419;BME280;4748;50.802;7.132;2023-04-03T17:52:07;102185.03;;;8.78;65.30
9419;BME280;4748;50.802;7.132;2023-04-03T17:54:32;102195.19;;;8.75;69.26
9419;BME280;4748;50.802;7.132;2023-04-03T17:56:57;102192.91;;;8.64;66.56
9419;BME280;4748;50.802;7.132;2023-04-03T17:59:23;102195.56;;;8.64;66.88
9419;BME280;4748;50.802;7.132;2023-04-03T18:01:48;102205.09;;;8.59;66.05
9419;BME280;4748;50.802;7.132;2023-04-03T18:04:15;102198.25;;;8.48;74.22
9419;BME280;4748;50.802;7.132;2023-04-03T18:06:48;102203.59;;;8.40;61.35
9419;BME280;4748;50.802;7.132;2023-04-03T18:09:20;102202.09;;;8.38;59.71
9419;BME280;4748;50.802;7.132;2023-04-03T18:11:47;102202.25;;;8.36;72.95
9419;BME280;4748;50.802;7.132;2023-04-03T18:14:16;102202.09;;;8.22;61.33
9419;BME280;4748;50.802;7.132;2023-04-03T18:16:43;102208.44;;;8.21;66.73
9419;BME280;4748;50.802;7.132;2023-04-03T18:19:09;102211.75;;;8.15;68.82
9419;BME280;4748;50.802;7.132;2023-04-03T18:21:36;102207.41;;;8.14;68.52
9419;BME280;4748;50.802;7.132;2023-04-03T18:24:02;102212.72;;;8.06;68.81
9419;BME280;4748;50.802;7.132;2023-04-03T18:26:29;102211.72;;;7.99;70.45
9419;BME280;4748;50.802;7.132;2023-04-03T18:28:57;102222.72;;;7.96;67.72
9419;BME280;4748;50.802;7.132;2023-04-03T18:31:26;102217.72;;;7.93;67.51
9419;BME280;4748;50.802;7.132;2023-04-03T18:33:52;102221.50;;;7.83;70.21
9419;BME280;4748;50.802;7.132;2023-04-03T18:36:20;102224.00;;;7.76;68.42
9419;BME280;4748;50.802;7.132;2023-04-03T18:38:46;102225.00;;;7.75;72.25
9419;BME280;4748;50.802;7.132;2023-04-03T18:41:11;102232.13;;;7.67;73.98
9419;BME280;4748;50.802;7.132;2023-04-03T18:43:37;102236.59;;;7.59;71.72
9419;BME280;4748;50.802;7.132;2023-04-03T18:46:03;102238.25;;;7.52;77.08
9419;BME280;4748;50.802;7.132;2023-04-03T18:48:30;102235.25;;;7.47;75.43
9419;BME280;4748;50.802;7.132;2023-04-03T18:50:55;102244.53;;;7.43;74.62
9419;BME280;4748;50.802;7.132;2023-04-03T18:53:21;102241.50;;;7.38;71.81
9419;BME280;4748;50.802;7.132;2023-04-03T18:55:46;102255.84;;;7.37;73.04
9419;BME280;4748;50.802;7.132;2023-04-03T18:58:12;102252.47;;;7.27;71.62
9419;BME280;4748;50.802;7.132;2023-04-03T19:00:38;102256.78;;;7.28;68.87
9419;BME280;4748;50.802;7.132;2023-04-03T19:03:04;102255.91;;;7.19;74.31
9419;BME280;4748;50.802;7.132;2023-04-03T19:05:30;102253.13;;;7.21;73.64
9419;BME280;4748;50.802;7.132;2023-04-03T19:07:56;102262.41;;;7.17;77.12
9419;BME280;4748;50.802;7.132;2023-04-03T19:10:22;102261.84;;;7.06;74.90
9419;BME280;4748;50.802;7.132;2023-04-03T19:12:49;102268.00;;;7.06;77.42
9419;BME280;4748;50.802;7.132;2023-04-03T19:15:17;102266.78;;;7.01;79.42
9419;BME280;4748;50.802;7.132;2023-04-03T19:17:43;102272.25;;;6.91;76.87
9419;BME280;4748;50.802;7.132;2023-04-03T19:20:09;102272.53;;;6.88;79.14
9419;BME280;4748;50.802;7.132;2023-04-03T19:22:35;102274.00;;;6.83;80.03
9419;BME280;4748;50.802;7.132;2023-04-03T19:25:01;102270.63;;;6.73;77.78
9419;BME280;4748;50.802;7.132;2023-04-03T19:27:27;102276.09;;;6.71;77.81
9419;BME280;4748;50.802;7.132;2023-04-03T19:29:52;102272.72;;;6.69;81.71
9419;BME280;4748;50.802;7.132;2023-04-03T19:32:18;102274.50;;;6.61;80.74
9419;BME280;4748;50.802;7.132;2023-04-03T19:34:44;102284.16;;;6.62;81.50
9419;BME280;4748;50.802;7.132;2023-04-03T19:37:09;102278.44;;;6.57;79.33
9419;BME280;4748;50.802;7.132;2023-04-03T19:39:36;102280.91;;;6.51;82.88
9419;BME280;4748;50.802;7.132;2023-04-03T19:42:03;102282.75;;;6.50;80.49
9419;BME280;4748;50.802;7.132;2023-04-03T19:44:29;102279.03;;;6.43;81.05
9419;BME280;4748;50.802;7.132;2023-04-03T19:46:57;102292.63;;;6.40;81.23
9419;BME280;4748;50.802;7.132;2023-04-03T19:49:23;102295.88;;;6.34;85.91
9419;BME280;4748;50.802;7.132;2023-04-03T19:51:48;102288.97;;;6.24;85.14
9419;BME280;4748;50.802;7.132;2023-04-03T19:54:14;102289.13;;;6.22;84.17
9419;BME280;4748;50.802;7.132;2023-04-03T19:56:39;102289.03;;;6.14;85.42
9419;BME280;4748;50.802;7.132;2023-04-03T19:59:05;102284.88;;;6.12;82.48
9419;BME280;4748;50.802;7.132;2023-04-03T20:01:30;102301.13;;;6.09;84.43
9419;BME280;4748;50.802;7.132;2023-04-03T20:03:58;102301.25;;;6.07;87.56
9419;BME280;4748;50.802;7.132;2023-04-03T20:06:23;102295.41;;;6.04;86.15
9419;BME280;4748;50.802;7.132;2023-04-03T20:08:49;102288.25;;;6.05;87.23
9419;BME280;4748;50.802;7.132;2023-04-03T20:11:14;102295.63;;;5.93;84.28
9419;BME280;4748;50.802;7.132;2023-04-03T20:13:40;102301.22;;;5.90;85.47
9419;BME280;4748;50.802;7.132;2023-04-03T20:16:06;102298.50;;;5.82;87.71
9419;BME280;4748;50.802;7.132;2023-04-03T20:18:31;102301.06;;;5.74;86.16
9419;BME280;4748;50.802;7.132;2023-04-03T20:21:02;102306.22;;;5.76;85.69
9419;BME280;4748;50.802;7.132;2023-04-03T20:23:29;102308.31;;;5.72;85.31
9419;BME280;4748;50.802;7.132;2023-04-03T20:25:56;102304.94;;;5.70;89.00
9419;BME280;4748;50.802;7.132;2023-04-03T20:28:22;102303.28;;;5.69;88.55
9419;BME280;4748;50.802;7.132;2023-04-03T20:30:49;102307.53;;;5.62;87.90
9419;BME280;4748;50.802;7.132;2023-04-03T20:33:16;102302.50;;;5.59;88.76
9419;BME280;4748;50.802;7.132;2023-04-03T20:35:43;102302.09;;;5.55;87.06
9419;BME280;4748;50.802;7.132;2023-04-03T20:38:09;102301.97;;;5.47;89.75
9419;BME280;4748;50.802;7.132;2023-04-03T20:40:35;102298.22;;;5.49;87.98
9419;BME280;4748;50.802;7.132;2023-04-03T20:43:01;102303.53;;;5.49;85.11
9419;BME280;4748;50.802;7.132;2023-04-03T20:45:27;102307.59;;;5.44;88.41
9419;BME280;4748;50.802;7.132;2023-04-03T20:47:57;102299.91;;;5.41;88.70
9419;BME280;4748;50.802;7.132;2023-04-03T20:50:24;102309.03;;;5.38;90.15
9419;BME280;4748;50.802;7.132;2023-04-03T20:52:49;102309.16;;;5.37;87.22
9419;BME280;4748;50.802;7.132;2023-04-03T20:55:15;102309.44;;;5.34;89.19
9419;BME280;4748;50.802;7.132;2023-04-03T20:57:41;102302.06;;;5.28;89.21
9419;BME280;4748;50.802;7.132;2023-04-03T21:00:10;102307.97;;;5.22;89.23
9419;BME280;4748;50.802;7.132;2023-04-03T21:02:41;102308.78;;;5.22;91.27
9419;BME280;4748;50.802;7.132;2023-04-03T21:05:08;102296.94;;;5.17;87.95
9419;BME280;4748;50.802;7.132;2023-04-03T21:19:12;102299.41;;;4.92;93.14
9419;BME280;4748;50.802;7.132;2023-04-03T21:21:38;102306.66;;;4.90;94.48
9419;BME280;4748;50.802;7.132;2023-04-03T21:24:06;102306.94;;;4.87;89.94
9419;BME280;4748;50.802;7.132;2023-04-03T21:26:34;102314.06;;;4.86;92.09
9419;BME280;4748;50.802;7.132;2023-04-03T21:29:00;102312.28;;;4.77;94.46
9419;BME280;4748;50.802;7.132;2023-04-03T21:31:49;102312.13;;;4.79;94.27
9419;BME280;4748;50.802;7.132;2023-04-03T21:34:15;102312.00;;;4.80;94.33
9419;BME280;4748;50.802;7.132;2023-04-03T21:36:41;102308.91;;;4.75;94.05
9419;BME280;4748;50.802;7.132;2023-04-03T21:39:07;102305.44;;;4.65;95.85
9419;BME280;4748;50.802;7.132;2023-04-03T21:41:33;102298.06;;;4.69;94.96
9419;BME280;4748;50.802;7.132;2023-04-03T21:43:58;102306.28;;;4.56;97.35
9419;BME280;4748;50.802;7.132;2023-04-03T21:46:23;102305.03;;;4.60;95.83
9419;BME280;4748;50.802;7.132;2023-04-03T21:48:49;102310.19;;;4.53;97.14
9419;BME280;4748;50.802;7.132;2023-04-03T21:51:15;102314.53;;;4.54;96.24
9419;BME280;4748;50.802;7.132;2023-04-03T21:53:41;102313.13;;;4.50;97.21
9419;BME280;4748;50.802;7.132;2023-04-03T21:56:09;102305.72;;;4.34;97.03
9419;BME280;4748;50.802;7.132;2023-04-03T21:58:34;102308.25;;;4.36;99.07
9419;BME280;4748;50.802;7.132;2023-04-03T22:01:09;102310.22;;;4.34;94.64
9419;BME280;4748;50.802;7.132;2023-04-03T22:03:36;102312.56;;;4.37;97.17
9419;BME280;4748;50.802;7.132;2023-04-03T22:06:01;102310.50;;;4.31;97.79
9419;BME280;4748;50.802;7.132;2023-04-03T22:08:27;102313.13;;;4.31;97.83
9419;BME280;4748;50.802;7.132;2023-04-03T22:11:08;102314.53;;;4.25;95.77
9419;BME280;4748;50.802;7.132;2023-04-03T22:13:34;102306.13;;;4.20;97.61
9419;BME280;4748;50.802;7.132;2023-04-03T22:16:00;102308.94;;;4.19;99.57
9419;BME280;4748;50.802;7.132;2023-04-03T22:18:27;102318.00;;;4.16;99.71
9419;BME280;4748;50.802;7.132;2023-04-03T22:20:52;102318.97;;;4.15;100.00
9419;BME280;4748;50.802;7.132;2023-04-03T22:23:19;102319.69;;;4.08;100.00
9419;BME280;4748;50.802;7.132;2023-04-03T22:28:23;102327.28;;;3.92;100.00
9419;BME280;4748;50.802;7.132;2023-04-03T22:30:48;102325.91;;;3.88;100.00
9419;BME280;4748;50.802;7.132;2023-04-03T22:33:14;102325.31;;;3.85;100.00
9419;BME280;4748;50.802;7.132;2023-04-03T22:35:48;102326.44;;;3.82;100.00
9419;BME280;4748;50.802;7.132;2023-04-03T22:38:15;102323.78;;;3.82;100.00
9419;BME280;4748;50.802;7.132;2023-04-03T22:40:41;102319.75;;;3.78;100.00
9419;BME280;4748;50.802;7.132;2023-04-03T22:43:07;102325.06;;;3.78;100.00
9419;BME280;4748;50.802;7.132;2023-04-03T22:45:32;102316.78;;;3.72;100.00
9419;BME280;4748;50.802;7.132;2023-04-03T22:47:58;102314.56;;;3.67;100.00
9419;BME280;4748;50.802;7.132;2023-04-03T22:50:24;102310.09;;;3.58;100.00
9419;BME280;4748;50.802;7.132;2023-04-03T22:52:49;102310.78;;;3.60;100.00
9419;BME280;4748;50.802;7.132;2023-04-03T22:55:15;102310.22;;;3.66;100.00
9419;BME280;4748;50.802;7.132;2023-04-03T22:57:45;102306.56;;;3.58;100.00
9419;BME280;4748;50.802;7.132;2023-04-03T23:00:11;102310.22;;;3.57;100.00
9419;BME280;4748;50.802;7.132;2023-04-03T23:02:36;102303.66;;;3.52;100.00
9419;BME280;4748;50.802;7.132;2023-04-03T23:05:02;102305.16;;;3.45;100.00
9419;BME280;4748;50.802;7.132;2023-04-03T23:07:27;102309.03;;;3.41;100.00
9419;BME280;4748;50.802;7.132;2023-04-03T23:09:53;102301.44;;;3.27;100.00
9419;BME280;4748;50.802;7.132;2023-04-03T23:12:19;102305.06;;;3.26;100.00
9419;BME280;4748;50.802;7.132;2023-04-03T23:14:44;102302.16;;;3.29;100.00
9419;BME280;4748;50.802;7.132;2023-04-03T23:17:09;102302.94;;;3.20;100.00
9419;BME280;4748;50.802;7.132;2023-04-03T23:19:35;102294.72;;;3.23;100.00
9419;BME280;4748;50.802;7.132;2023-04-03T23:22:01;102300.03;;;3.23;100.00
9419;BME280;4748;50.802;7.132;2023-04-03T23:24:26;102293.16;;;3.11;100.00
9419;BME280;4748;50.802;7.132;2023-04-03T23:26:52;102291.94;;;3.15;100.00
9419;BME280;4748;50.802;7.132;2023-04-03T23:29:17;102296.88;;;2.99;100.00
9419;BME280;4748;50.802;7.132;2023-04-03T23:31:43;102299.53;;;3.08;100.00
9419;BME280;4748;50.802;7.132;2023-04-03T23:34:08;102301.63;;;3.05;100.00
9419;BME280;4748;50.802;7.132;2023-04-03T23:36:34;102301.69;;;2.94;100.00
9419;BME280;4748;50.802;7.132;2023-04-03T23:38:59;102302.16;;;2.99;100.00
9419;BME280;4748;50.802;7.132;2023-04-03T23:41:25;102295.97;;;2.89;100.00
9419;BME280;4748;50.802;7.132;2023-04-03T23:43:50;102300.47;;;2.98;100.00
9419;BME280;4748;50.802;7.132;2023-04-03T23:46:15;102303.66;;;2.92;100.00
9419;BME280;4748;50.802;7.132;2023-04-03T23:48:41;102306.16;;;2.94;100.00
9419;BME280;4748;50.802;7.132;2023-04-03T23:51:06;102301.00;;;2.92;100.00
9419;BME280;4748;50.802;7.132;2023-04-03T23:53:32;102303.78;;;2.91;100.00
9419;BME280;4748;50.802;7.132;2023-04-03T23:55:57;102302.22;;;2.88;100.00
9419;BME280;4748;50.802;7.132;2023-04-03T23:58:22;102302.50;;;2.85;100.00
